Estevan, Saskatchewan

10:11 PM CST on December 20, 2014 (GMT -0600)
Estevan | Change Station
CLOSE
Current Station
Airport
Location: Estevan,
Elevation: 1906 ft
Nearby Weather Stations

Elev 1906 ft 49.21 °N, 102.97 °W | Updated 11 minutes ago

Partly Cloudy
Partly Cloudy
23 °F
Feels Like 14 °F
N
8
Wind Variable Wind from SW

Today
High -- | Low -- °F
--% Chance of Precip.
Yesterday
High -- | Low -- °F
Precip. -- in
8:43 AM 4:55 PM
Waning Crescent, 1% visible
Pressure 29.79 in
Visibility 15.0 miles
Clouds Few 4000 ft
Windchill 14 °F
Dew Point 23 °F
Humidity 100%
Rainfall 0.00 in
Snow Depth Not available.
UV 0 out of 12
Pollen Not available.
Air Quality Not available.
Flu Activity Not available.
METAR CYEN 210400Z 22007KT 15SM FEW040 M05/M05 A2969 RMK SC1 SLP088

More Conditions Fewer Conditions

Pressure 29.79 in
Visibility 15.0 miles
Clouds Few 4000 ft
Windchill 14 °F
Dew Point 23 °F
Humidity 100%
Rainfall 0.00 in
Snow Depth Not available.
UV 0 out of 12
Pollen Not available.
Air Quality Not available.
Flu Activity Not available.
METAR CYEN 210400Z 22007KT 15SM FEW040 M05/M05 A2969 RMK SC1 SLP088

More Conditions Fewer Conditions

10-Day Weather Forecast

Almanac

Astronomy

Dec. 20, 2014 Rise Set
Actual Time
Civil Twilight
Nautical Twilight
Astronomical Twilight
Moon
Length of Visible Light
Length of Day
Tomorrow will be .
, % of the Moon is Illuminated

Today's Extremes

Country Highs Country Lows

Community

WunderPhotos

Upload Photos

1,779,357 photos uploaded!

WunderBlogs® & News

Nearby

Air Quality

  Air Quality AQ Index Pollutant
Not available.

Snow Depth

Station Depth Elevation

Earthquake Activity

City Distance Mag. Time & Date
Minimum magnitude displayed is 2.5.

Coastal Water Temperatures

Place Temperature

Nearby Weather Stations